sensor_id;sensor_type;location;lat;lon;timestamp;P1;durP1;ratioP1;P2;durP2;ratioP2
27199;SDS011;14714;48.106;11.546;2024-01-06T00:02:15;10.50;;;8.10;;
27199;SDS011;14714;48.106;11.546;2024-01-06T00:04:42;11.65;;;8.23;;
27199;SDS011;14714;48.106;11.546;2024-01-06T00:07:09;10.88;;;7.72;;
27199;SDS011;14714;48.106;11.546;2024-01-06T00:09:36;11.68;;;7.90;;
27199;SDS011;14714;48.106;11.546;2024-01-06T00:12:03;10.07;;;7.10;;
27199;SDS011;14714;48.106;11.546;2024-01-06T00:14:30;12.38;;;7.70;;
27199;SDS011;14714;48.106;11.546;2024-01-06T00:16:57;11.68;;;8.38;;
27199;SDS011;14714;48.106;11.546;2024-01-06T00:19:24;12.75;;;8.65;;
27199;SDS011;14714;48.106;11.546;2024-01-06T00:21:51;11.45;;;8.00;;
27199;SDS011;14714;48.106;11.546;2024-01-06T00:24:18;13.20;;;8.93;;
27199;SDS011;14714;48.106;11.546;2024-01-06T00:26:45;12.55;;;8.50;;
27199;SDS011;14714;48.106;11.546;2024-01-06T00:29:12;12.65;;;8.93;;
27199;SDS011;14714;48.106;11.546;2024-01-06T00:31:39;12.10;;;8.27;;
27199;SDS011;14714;48.106;11.546;2024-01-06T00:34:06;12.45;;;9.05;;
27199;SDS011;14714;48.106;11.546;2024-01-06T00:36:33;10.52;;;7.22;;
27199;SDS011;14714;48.106;11.546;2024-01-06T00:39:00;10.15;;;7.13;;
27199;SDS011;14714;48.106;11.546;2024-01-06T00:41:26;10.80;;;7.47;;
27199;SDS011;14714;48.106;11.546;2024-01-06T00:43:53;9.32;;;6.20;;
27199;SDS011;14714;48.106;11.546;2024-01-06T00:46:20;9.27;;;5.80;;
27199;SDS011;14714;48.106;11.546;2024-01-06T00:48:47;9.02;;;6.18;;
27199;SDS011;14714;48.106;11.546;2024-01-06T00:51:14;8.80;;;6.32;;
27199;SDS011;14714;48.106;11.546;2024-01-06T00:53:41;9.20;;;6.28;;
27199;SDS011;14714;48.106;11.546;2024-01-06T00:56:08;9.05;;;5.88;;
27199;SDS011;14714;48.106;11.546;2024-01-06T00:58:35;6.43;;;4.85;;
27199;SDS011;14714;48.106;11.546;2024-01-06T01:01:01;7.93;;;5.10;;
27199;SDS011;14714;48.106;11.546;2024-01-06T01:03:29;3.58;;;2.35;;
27199;SDS011;14714;48.106;11.546;2024-01-06T01:05:56;4.00;;;1.77;;
27199;SDS011;14714;48.106;11.546;2024-01-06T01:08:24;4.25;;;2.05;;
27199;SDS011;14714;48.106;11.546;2024-01-06T01:10:51;3.72;;;2.50;;
27199;SDS011;14714;48.106;11.546;2024-01-06T01:13:17;3.33;;;2.25;;
27199;SDS011;14714;48.106;11.546;2024-01-06T01:15:44;2.75;;;1.98;;
27199;SDS011;14714;48.106;11.546;2024-01-06T01:18:11;4.05;;;2.35;;
27199;SDS011;14714;48.106;11.546;2024-01-06T01:20:39;3.40;;;2.10;;
27199;SDS011;14714;48.106;11.546;2024-01-06T01:23:08;3.45;;;2.17;;
27199;SDS011;14714;48.106;11.546;2024-01-06T01:25:35;2.53;;;1.95;;
27199;SDS011;14714;48.106;11.546;2024-01-06T01:28:02;3.80;;;2.10;;
27199;SDS011;14714;48.106;11.546;2024-01-06T01:30:29;3.03;;;2.22;;
27199;SDS011;14714;48.106;11.546;2024-01-06T01:32:56;3.30;;;2.08;;
27199;SDS011;14714;48.106;11.546;2024-01-06T01:35:23;2.40;;;2.05;;
27199;SDS011;14714;48.106;11.546;2024-01-06T01:37:49;3.42;;;2.05;;
27199;SDS011;14714;48.106;11.546;2024-01-06T01:40:16;3.65;;;2.35;;
27199;SDS011;14714;48.106;11.546;2024-01-06T01:42:43;2.97;;;2.13;;
27199;SDS011;14714;48.106;11.546;2024-01-06T01:45:10;3.53;;;2.67;;
27199;SDS011;14714;48.106;11.546;2024-01-06T01:47:38;4.68;;;2.42;;
27199;SDS011;14714;48.106;11.546;2024-01-06T01:50:06;4.82;;;2.70;;
27199;SDS011;14714;48.106;11.546;2024-01-06T01:52:35;4.13;;;2.45;;
27199;SDS011;14714;48.106;11.546;2024-01-06T01:55:03;3.38;;;2.45;;
27199;SDS011;14714;48.106;11.546;2024-01-06T01:57:30;3.55;;;2.50;;
27199;SDS011;14714;48.106;11.546;2024-01-06T01:59:57;4.47;;;2.22;;
27199;SDS011;14714;48.106;11.546;2024-01-06T02:02:26;3.30;;;2.40;;
27199;SDS011;14714;48.106;11.546;2024-01-06T02:04:55;3.17;;;2.33;;
27199;SDS011;14714;48.106;11.546;2024-01-06T02:07:22;4.32;;;2.47;;
27199;SDS011;14714;48.106;11.546;2024-01-06T02:09:49;4.25;;;2.80;;
27199;SDS011;14714;48.106;11.546;2024-01-06T02:12:16;4.07;;;3.10;;
27199;SDS011;14714;48.106;11.546;2024-01-06T02:14:43;4.13;;;2.88;;
27199;SDS011;14714;48.106;11.546;2024-01-06T02:17:10;5.40;;;3.20;;
27199;SDS011;14714;48.106;11.546;2024-01-06T02:19:37;3.65;;;2.97;;
27199;SDS011;14714;48.106;11.546;2024-01-06T02:22:04;4.32;;;2.72;;
27199;SDS011;14714;48.106;11.546;2024-01-06T02:24:31;4.35;;;2.67;;
27199;SDS011;14714;48.106;11.546;2024-01-06T02:26:58;4.70;;;3.00;;
27199;SDS011;14714;48.106;11.546;2024-01-06T02:29:25;4.90;;;2.95;;
27199;SDS011;14714;48.106;11.546;2024-01-06T02:31:52;4.20;;;3.00;;
27199;SDS011;14714;48.106;11.546;2024-01-06T02:34:18;3.70;;;2.90;;
27199;SDS011;14714;48.106;11.546;2024-01-06T02:36:45;5.28;;;2.95;;
27199;SDS011;14714;48.106;11.546;2024-01-06T02:39:12;3.95;;;2.80;;
27199;SDS011;14714;48.106;11.546;2024-01-06T02:41:39;6.18;;;3.20;;
27199;SDS011;14714;48.106;11.546;2024-01-06T02:44:06;3.92;;;2.90;;
27199;SDS011;14714;48.106;11.546;2024-01-06T02:46:38;3.92;;;2.65;;
27199;SDS011;14714;48.106;11.546;2024-01-06T02:49:06;3.67;;;2.75;;
27199;SDS011;14714;48.106;11.546;2024-01-06T02:51:34;3.45;;;2.65;;
27199;SDS011;14714;48.106;11.546;2024-01-06T02:54:01;4.60;;;2.38;;
27199;SDS011;14714;48.106;11.546;2024-01-06T02:56:28;3.17;;;1.80;;
27199;SDS011;14714;48.106;11.546;2024-01-06T02:58:54;2.28;;;1.48;;
27199;SDS011;14714;48.106;11.546;2024-01-06T03:01:21;3.00;;;1.30;;
27199;SDS011;14714;48.106;11.546;2024-01-06T03:03:48;2.58;;;1.70;;
27199;SDS011;14714;48.106;11.546;2024-01-06T03:06:15;2.08;;;1.23;;
27199;SDS011;14714;48.106;11.546;2024-01-06T03:08:42;1.27;;;1.10;;
27199;SDS011;14714;48.106;11.546;2024-01-06T03:11:10;1.67;;;1.23;;
27199;SDS011;14714;48.106;11.546;2024-01-06T03:13:37;0.88;;;0.80;;
27199;SDS011;14714;48.106;11.546;2024-01-06T03:16:04;1.90;;;1.30;;
27199;SDS011;14714;48.106;11.546;2024-01-06T03:18:33;1.45;;;1.10;;
27199;SDS011;14714;48.106;11.546;2024-01-06T03:21:00;1.30;;;1.20;;
27199;SDS011;14714;48.106;11.546;2024-01-06T03:23:28;1.33;;;1.20;;
27199;SDS011;14714;48.106;11.546;2024-01-06T03:25:54;1.23;;;1.02;;
27199;SDS011;14714;48.106;11.546;2024-01-06T03:28:21;2.83;;;1.20;;
27199;SDS011;14714;48.106;11.546;2024-01-06T03:30:48;1.30;;;1.20;;
27199;SDS011;14714;48.106;11.546;2024-01-06T03:33:15;1.42;;;1.13;;
27199;SDS011;14714;48.106;11.546;2024-01-06T03:35:42;1.20;;;1.00;;
27199;SDS011;14714;48.106;11.546;2024-01-06T03:38:09;2.22;;;1.20;;
27199;SDS011;14714;48.106;11.546;2024-01-06T03:40:36;3.05;;;1.10;;
27199;SDS011;14714;48.106;11.546;2024-01-06T03:43:03;1.40;;;1.25;;
27199;SDS011;14714;48.106;11.546;2024-01-06T03:45:30;1.50;;;1.20;;
27199;SDS011;14714;48.106;11.546;2024-01-06T03:47:57;1.80;;;1.45;;
27199;SDS011;14714;48.106;11.546;2024-01-06T03:50:24;2.70;;;1.50;;
27199;SDS011;14714;48.106;11.546;2024-01-06T03:52:50;1.83;;;1.40;;
27199;SDS011;14714;48.106;11.546;2024-01-06T03:55:17;2.13;;;1.70;;
27199;SDS011;14714;48.106;11.546;2024-01-06T03:57:44;2.45;;;1.75;;
27199;SDS011;14714;48.106;11.546;2024-01-06T04:00:11;2.00;;;1.50;;
27199;SDS011;14714;48.106;11.546;2024-01-06T04:02:38;2.35;;;1.63;;
27199;SDS011;14714;48.106;11.546;2024-01-06T04:05:05;2.75;;;1.40;;
27199;SDS011;14714;48.106;11.546;2024-01-06T04:07:32;2.28;;;1.60;;
27199;SDS011;14714;48.106;11.546;2024-01-06T04:09:59;2.05;;;1.55;;
27199;SDS011;14714;48.106;11.546;2024-01-06T04:12:26;2.88;;;1.60;;
27199;SDS011;14714;48.106;11.546;2024-01-06T04:14:53;1.60;;;1.40;;
27199;SDS011;14714;48.106;11.546;2024-01-06T04:17:20;1.58;;;1.20;;
27199;SDS011;14714;48.106;11.546;2024-01-06T04:19:47;1.63;;;1.42;;
27199;SDS011;14714;48.106;11.546;2024-01-06T04:22:14;2.10;;;1.45;;
27199;SDS011;14714;48.106;11.546;2024-01-06T04:24:41;1.60;;;1.50;;
27199;SDS011;14714;48.106;11.546;2024-01-06T04:27:07;2.80;;;1.50;;
27199;SDS011;14714;48.106;11.546;2024-01-06T04:29:36;2.15;;;1.40;;
27199;SDS011;14714;48.106;11.546;2024-01-06T04:32:03;1.98;;;1.48;;
27199;SDS011;14714;48.106;11.546;2024-01-06T04:34:30;3.20;;;1.70;;
27199;SDS011;14714;48.106;11.546;2024-01-06T04:36:57;1.92;;;1.42;;
27199;SDS011;14714;48.106;11.546;2024-01-06T04:39:24;1.83;;;1.40;;
27199;SDS011;14714;48.106;11.546;2024-01-06T04:41:50;1.52;;;1.13;;
27199;SDS011;14714;48.106;11.546;2024-01-06T04:44:19;1.50;;;1.30;;
27199;SDS011;14714;48.106;11.546;2024-01-06T04:46:47;1.70;;;1.30;;
27199;SDS011;14714;48.106;11.546;2024-01-06T04:49:14;2.45;;;1.45;;
27199;SDS011;14714;48.106;11.546;2024-01-06T04:51:41;2.17;;;1.67;;
27199;SDS011;14714;48.106;11.546;2024-01-06T04:54:08;2.17;;;1.58;;
27199;SDS011;14714;48.106;11.546;2024-01-06T04:56:34;1.98;;;1.50;;
27199;SDS011;14714;48.106;11.546;2024-01-06T04:59:02;1.65;;;1.52;;
27199;SDS011;14714;48.106;11.546;2024-01-06T05:01:29;2.45;;;1.35;;
27199;SDS011;14714;48.106;11.546;2024-01-06T05:03:56;1.48;;;1.20;;
27199;SDS011;14714;48.106;11.546;2024-01-06T05:06:23;2.10;;;1.50;;
27199;SDS011;14714;48.106;11.546;2024-01-06T05:08:50;1.83;;;1.40;;
27199;SDS011;14714;48.106;11.546;2024-01-06T05:11:17;1.65;;;1.23;;
27199;SDS011;14714;48.106;11.546;2024-01-06T05:13:44;1.10;;;1.00;;
27199;SDS011;14714;48.106;11.546;2024-01-06T05:16:11;1.15;;;0.80;;
27199;SDS011;14714;48.106;11.546;2024-01-06T05:18:38;1.35;;;0.80;;
27199;SDS011;14714;48.106;11.546;2024-01-06T05:21:05;0.82;;;0.80;;
27199;SDS011;14714;48.106;11.546;2024-01-06T05:23:32;0.73;;;0.65;;
27199;SDS011;14714;48.106;11.546;2024-01-06T05:25:59;1.35;;;0.82;;
27199;SDS011;14714;48.106;11.546;2024-01-06T05:28:26;0.63;;;0.63;;
27199;SDS011;14714;48.106;11.546;2024-01-06T05:30:52;0.70;;;0.70;;
27199;SDS011;14714;48.106;11.546;2024-01-06T05:33:19;1.10;;;0.90;;
27199;SDS011;14714;48.106;11.546;2024-01-06T05:35:46;0.90;;;0.88;;
27199;SDS011;14714;48.106;11.546;2024-01-06T05:38:13;1.35;;;0.90;;
27199;SDS011;14714;48.106;11.546;2024-01-06T05:40:40;0.60;;;0.60;;
27199;SDS011;14714;48.106;11.546;2024-01-06T05:43:07;1.85;;;1.00;;
27199;SDS011;14714;48.106;11.546;2024-01-06T05:45:34;1.95;;;0.85;;
27199;SDS011;14714;48.106;11.546;2024-01-06T05:48:01;0.85;;;0.82;;
27199;SDS011;14714;48.106;11.546;2024-01-06T05:50:28;1.20;;;1.10;;
27199;SDS011;14714;48.106;11.546;2024-01-06T05:52:55;2.10;;;1.00;;
27199;SDS011;14714;48.106;11.546;2024-01-06T05:55:22;1.13;;;1.02;;
27199;SDS011;14714;48.106;11.546;2024-01-06T05:57:49;1.13;;;1.00;;
27199;SDS011;14714;48.106;11.546;2024-01-06T06:00:16;2.45;;;0.90;;
27199;SDS011;14714;48.106;11.546;2024-01-06T06:02:43;1.13;;;1.02;;
27199;SDS011;14714;48.106;11.546;2024-01-06T06:05:10;1.13;;;0.90;;
27199;SDS011;14714;48.106;11.546;2024-01-06T06:07:37;2.78;;;0.80;;
27199;SDS011;14714;48.106;11.546;2024-01-06T06:10:10;1.20;;;1.10;;
27199;SDS011;14714;48.106;11.546;2024-01-06T06:12:38;0.95;;;0.90;;
27199;SDS011;14714;48.106;11.546;2024-01-06T06:15:05;2.00;;;1.70;;
27199;SDS011;14714;48.106;11.546;2024-01-06T06:17:33;1.90;;;1.63;;
27199;SDS011;14714;48.106;11.546;2024-01-06T06:20:02;1.75;;;1.55;;
27199;SDS011;14714;48.106;11.546;2024-01-06T06:22:29;1.95;;;1.45;;
27199;SDS011;14714;48.106;11.546;2024-01-06T06:24:59;4.05;;;1.80;;
27199;SDS011;14714;48.106;11.546;2024-01-06T06:27:26;1.60;;;1.50;;
27199;SDS011;14714;48.106;11.546;2024-01-06T06:29:54;1.92;;;1.60;;
27199;SDS011;14714;48.106;11.546;2024-01-06T06:32:22;1.90;;;1.70;;
27199;SDS011;14714;48.106;11.546;2024-01-06T06:34:49;2.13;;;1.80;;
27199;SDS011;14714;48.106;11.546;2024-01-06T06:37:16;2.15;;;1.60;;
27199;SDS011;14714;48.106;11.546;2024-01-06T06:39:43;2.25;;;1.65;;
27199;SDS011;14714;48.106;11.546;2024-01-06T06:42:11;2.05;;;1.65;;
27199;SDS011;14714;48.106;11.546;2024-01-06T06:44:38;1.65;;;1.40;;
27199;SDS011;14714;48.106;11.546;2024-01-06T06:47:05;2.35;;;1.70;;
27199;SDS011;14714;48.106;11.546;2024-01-06T06:49:32;2.92;;;2.00;;
27199;SDS011;14714;48.106;11.546;2024-01-06T06:51:59;2.20;;;2.00;;
27199;SDS011;14714;48.106;11.546;2024-01-06T06:54:26;2.20;;;2.00;;
27199;SDS011;14714;48.106;11.546;2024-01-06T06:56:53;3.53;;;2.20;;
27199;SDS011;14714;48.106;11.546;2024-01-06T06:59:20;2.75;;;2.20;;
27199;SDS011;14714;48.106;11.546;2024-01-06T07:01:47;3.85;;;2.50;;
27199;SDS011;14714;48.106;11.546;2024-01-06T07:04:14;2.60;;;2.40;;
27199;SDS011;14714;48.106;11.546;2024-01-06T07:06:41;3.55;;;2.60;;
27199;SDS011;14714;48.106;11.546;2024-01-06T07:09:08;3.90;;;2.78;;
27199;SDS011;14714;48.106;11.546;2024-01-06T07:11:35;3.75;;;2.80;;
27199;SDS011;14714;48.106;11.546;2024-01-06T07:14:01;4.20;;;2.85;;
27199;SDS011;14714;48.106;11.546;2024-01-06T07:16:28;4.60;;;2.75;;
27199;SDS011;14714;48.106;11.546;2024-01-06T07:18:55;4.80;;;2.80;;
27199;SDS011;14714;48.106;11.546;2024-01-06T07:21:22;5.18;;;2.78;;
27199;SDS011;14714;48.106;11.546;2024-01-06T07:23:49;3.45;;;2.72;;
27199;SDS011;14714;48.106;11.546;2024-01-06T07:26:16;7.28;;;3.58;;
27199;SDS011;14714;48.106;11.546;2024-01-06T07:28:44;4.63;;;3.03;;
27199;SDS011;14714;48.106;11.546;2024-01-06T07:31:11;3.72;;;3.00;;
27199;SDS011;14714;48.106;11.546;2024-01-06T07:33:38;7.63;;;2.70;;
27199;SDS011;14714;48.106;11.546;2024-01-06T07:36:06;4.72;;;2.60;;
27199;SDS011;14714;48.106;11.546;2024-01-06T07:38:33;3.10;;;2.80;;
27199;SDS011;14714;48.106;11.546;2024-01-06T07:41:00;3.78;;;2.80;;
27199;SDS011;14714;48.106;11.546;2024-01-06T07:43:27;3.80;;;2.80;;
27199;SDS011;14714;48.106;11.546;2024-01-06T07:45:53;4.70;;;2.97;;
27199;SDS011;14714;48.106;11.546;2024-01-06T07:48:20;5.20;;;3.30;;
27199;SDS011;14714;48.106;11.546;2024-01-06T07:50:49;5.43;;;3.40;;
27199;SDS011;14714;48.106;11.546;2024-01-06T07:53:16;6.28;;;3.40;;
27199;SDS011;14714;48.106;11.546;2024-01-06T07:55:43;5.05;;;2.83;;
27199;SDS011;14714;48.106;11.546;2024-01-06T07:58:10;5.13;;;3.00;;
27199;SDS011;14714;48.106;11.546;2024-01-06T08:00:38;4.72;;;3.28;;
27199;SDS011;14714;48.106;11.546;2024-01-06T08:03:05;4.78;;;3.30;;
27199;SDS011;14714;48.106;11.546;2024-01-06T08:05:32;6.85;;;3.15;;
27199;SDS011;14714;48.106;11.546;2024-01-06T08:07:59;4.80;;;3.38;;
27199;SDS011;14714;48.106;11.546;2024-01-06T08:10:26;6.18;;;3.70;;
27199;SDS011;14714;48.106;11.546;2024-01-06T08:12:53;6.07;;;3.78;;
27199;SDS011;14714;48.106;11.546;2024-01-06T08:15:20;8.95;;;5.13;;
27199;SDS011;14714;48.106;11.546;2024-01-06T08:17:47;6.35;;;4.65;;
27199;SDS011;14714;48.106;11.546;2024-01-06T08:20:15;5.90;;;4.10;;
27199;SDS011;14714;48.106;11.546;2024-01-06T08:22:42;6.65;;;4.15;;
27199;SDS011;14714;48.106;11.546;2024-01-06T08:25:08;5.40;;;3.42;;
27199;SDS011;14714;48.106;11.546;2024-01-06T08:27:35;9.07;;;3.60;;
27199;SDS011;14714;48.106;11.546;2024-01-06T08:30:02;5.40;;;3.00;;
27199;SDS011;14714;48.106;11.546;2024-01-06T08:32:29;4.70;;;3.00;;
27199;SDS011;14714;48.106;11.546;2024-01-06T08:34:56;5.72;;;3.67;;
27199;SDS011;14714;48.106;11.546;2024-01-06T08:37:23;4.32;;;3.00;;
27199;SDS011;14714;48.106;11.546;2024-01-06T08:39:50;5.13;;;2.80;;
27199;SDS011;14714;48.106;11.546;2024-01-06T08:42:17;8.85;;;3.60;;
27199;SDS011;14714;48.106;11.546;2024-01-06T08:44:45;11.63;;;4.30;;
27199;SDS011;14714;48.106;11.546;2024-01-06T08:47:12;12.10;;;5.55;;
27199;SDS011;14714;48.106;11.546;2024-01-06T08:49:38;15.35;;;6.57;;
27199;SDS011;14714;48.106;11.546;2024-01-06T08:52:06;7.18;;;3.55;;
27199;SDS011;14714;48.106;11.546;2024-01-06T08:54:32;5.50;;;3.17;;
27199;SDS011;14714;48.106;11.546;2024-01-06T08:56:59;7.57;;;4.43;;
27199;SDS011;14714;48.106;11.546;2024-01-06T08:59:27;6.45;;;3.53;;
27199;SDS011;14714;48.106;11.546;2024-01-06T09:01:53;5.57;;;3.75;;
27199;SDS011;14714;48.106;11.546;2024-01-06T09:04:20;6.10;;;3.50;;
27199;SDS011;14714;48.106;11.546;2024-01-06T09:06:47;6.38;;;3.33;;
27199;SDS011;14714;48.106;11.546;2024-01-06T09:09:14;7.47;;;3.90;;
27199;SDS011;14714;48.106;11.546;2024-01-06T09:11:41;7.22;;;3.55;;
27199;SDS011;14714;48.106;11.546;2024-01-06T09:14:10;5.18;;;2.88;;
27199;SDS011;14714;48.106;11.546;2024-01-06T09:16:37;5.82;;;2.83;;
27199;SDS011;14714;48.106;11.546;2024-01-06T09:19:04;5.75;;;2.80;;
27199;SDS011;14714;48.106;11.546;2024-01-06T09:21:31;4.22;;;2.75;;
27199;SDS011;14714;48.106;11.546;2024-01-06T09:23:58;5.47;;;2.38;;
27199;SDS011;14714;48.106;11.546;2024-01-06T09:26:26;7.00;;;2.92;;
27199;SDS011;14714;48.106;11.546;2024-01-06T09:28:53;6.10;;;2.95;;
27199;SDS011;14714;48.106;11.546;2024-01-06T09:31:20;7.50;;;3.03;;
27199;SDS011;14714;48.106;11.546;2024-01-06T09:33:47;5.18;;;3.25;;
27199;SDS011;14714;48.106;11.546;2024-01-06T09:36:16;9.23;;;3.25;;
27199;SDS011;14714;48.106;11.546;2024-01-06T09:38:43;6.40;;;3.08;;
27199;SDS011;14714;48.106;11.546;2024-01-06T09:41:10;5.70;;;3.38;;
27199;SDS011;14714;48.106;11.546;2024-01-06T09:43:36;6.90;;;3.10;;
27199;SDS011;14714;48.106;11.546;2024-01-06T09:48:42;5.78;;;3.33;;
27199;SDS011;14714;48.106;11.546;2024-01-06T09:51:11;4.65;;;2.95;;
27199;SDS011;14714;48.106;11.546;2024-01-06T09:53:42;5.57;;;3.00;;
27199;SDS011;14714;48.106;11.546;2024-01-06T09:56:15;5.22;;;3.17;;
27199;SDS011;14714;48.106;11.546;2024-01-06T09:58:42;6.15;;;3.25;;
27199;SDS011;14714;48.106;11.546;2024-01-06T10:01:11;7.30;;;3.00;;
27199;SDS011;14714;48.106;11.546;2024-01-06T10:03:38;6.60;;;2.95;;
27199;SDS011;14714;48.106;11.546;2024-01-06T10:06:05;6.82;;;3.70;;
27199;SDS011;14714;48.106;11.546;2024-01-06T10:08:32;7.03;;;3.00;;
27199;SDS011;14714;48.106;11.546;2024-01-06T10:10:59;6.55;;;2.90;;
27199;SDS011;14714;48.106;11.546;2024-01-06T10:13:27;5.43;;;3.00;;
27199;SDS011;14714;48.106;11.546;2024-01-06T10:15:54;7.13;;;3.13;;
27199;SDS011;14714;48.106;11.546;2024-01-06T10:18:21;6.82;;;3.08;;
27199;SDS011;14714;48.106;11.546;2024-01-06T10:20:51;5.30;;;3.15;;
27199;SDS011;14714;48.106;11.546;2024-01-06T10:23:20;7.30;;;3.40;;
27199;SDS011;14714;48.106;11.546;2024-01-06T10:28:24;6.97;;;3.50;;
27199;SDS011;14714;48.106;11.546;2024-01-06T10:30:51;6.88;;;3.40;;
27199;SDS011;14714;48.106;11.546;2024-01-06T10:33:20;6.25;;;3.40;;
27199;SDS011;14714;48.106;11.546;2024-01-06T10:35:49;7.93;;;3.70;;
27199;SDS011;14714;48.106;11.546;2024-01-06T10:38:16;6.40;;;3.80;;
27199;SDS011;14714;48.106;11.546;2024-01-06T10:40:57;8.63;;;3.63;;
27199;SDS011;14714;48.106;11.546;2024-01-06T10:43:27;5.78;;;3.50;;
27199;SDS011;14714;48.106;11.546;2024-01-06T10:45:55;6.72;;;4.00;;
27199;SDS011;14714;48.106;11.546;2024-01-06T10:48:25;8.17;;;4.10;;
27199;SDS011;14714;48.106;11.546;2024-01-06T10:50:53;8.90;;;3.90;;
27199;SDS011;14714;48.106;11.546;2024-01-06T10:53:21;7.97;;;3.67;;
27199;SDS011;14714;48.106;11.546;2024-01-06T10:55:50;9.63;;;4.30;;
27199;SDS011;14714;48.106;11.546;2024-01-06T10:58:21;8.43;;;4.10;;
27199;SDS011;14714;48.106;11.546;2024-01-06T11:00:49;8.27;;;4.07;;
27199;SDS011;14714;48.106;11.546;2024-01-06T11:03:17;6.43;;;3.80;;
27199;SDS011;14714;48.106;11.546;2024-01-06T11:05:44;9.10;;;3.80;;
27199;SDS011;14714;48.106;11.546;2024-01-06T11:08:11;10.85;;;3.78;;
27199;SDS011;14714;48.106;11.546;2024-01-06T11:10:39;10.50;;;4.20;;
27199;SDS011;14714;48.106;11.546;2024-01-06T11:13:13;11.85;;;3.80;;
27199;SDS011;14714;48.106;11.546;2024-01-06T11:15:44;8.45;;;4.30;;
27199;SDS011;14714;48.106;11.546;2024-01-06T11:18:37;8.30;;;4.03;;
27199;SDS011;14714;48.106;11.546;2024-01-06T11:23:40;6.68;;;4.03;;
27199;SDS011;14714;48.106;11.546;2024-01-06T11:26:07;6.55;;;3.80;;
27199;SDS011;14714;48.106;11.546;2024-01-06T11:28:44;9.02;;;3.92;;
27199;SDS011;14714;48.106;11.546;2024-01-06T11:31:12;8.20;;;4.30;;
27199;SDS011;14714;48.106;11.546;2024-01-06T11:33:45;8.40;;;3.55;;
27199;SDS011;14714;48.106;11.546;2024-01-06T11:36:15;7.45;;;3.83;;
27199;SDS011;14714;48.106;11.546;2024-01-06T11:38:42;7.85;;;3.30;;
27199;SDS011;14714;48.106;11.546;2024-01-06T11:41:44;8.70;;;3.97;;
27199;SDS011;14714;48.106;11.546;2024-01-06T11:44:22;5.78;;;3.58;;
27199;SDS011;14714;48.106;11.546;2024-01-06T11:46:49;11.43;;;3.85;;
27199;SDS011;14714;48.106;11.546;2024-01-06T11:49:18;9.77;;;4.22;;
27199;SDS011;14714;48.106;11.546;2024-01-06T11:51:48;5.28;;;3.60;;
27199;SDS011;14714;48.106;11.546;2024-01-06T11:54:15;7.30;;;4.03;;
27199;SDS011;14714;48.106;11.546;2024-01-06T11:56:42;9.13;;;4.40;;
27199;SDS011;14714;48.106;11.546;2024-01-06T11:59:09;6.88;;;4.18;;
27199;SDS011;14714;48.106;11.546;2024-01-06T12:01:36;9.25;;;4.43;;
27199;SDS011;14714;48.106;11.546;2024-01-06T12:04:04;7.70;;;4.38;;
27199;SDS011;14714;48.106;11.546;2024-01-06T12:06:32;8.23;;;4.57;;
27199;SDS011;14714;48.106;11.546;2024-01-06T12:09:06;11.73;;;4.57;;
27199;SDS011;14714;48.106;11.546;2024-01-06T12:11:34;8.93;;;5.15;;
27199;SDS011;14714;48.106;11.546;2024-01-06T12:14:03;9.32;;;4.93;;
27199;SDS011;14714;48.106;11.546;2024-01-06T12:16:30;8.80;;;4.93;;
27199;SDS011;14714;48.106;11.546;2024-01-06T12:18:58;10.23;;;4.68;;
27199;SDS011;14714;48.106;11.546;2024-01-06T12:21:27;10.88;;;5.13;;
27199;SDS011;14714;48.106;11.546;2024-01-06T12:23:54;10.32;;;5.82;;
27199;SDS011;14714;48.106;11.546;2024-01-06T12:26:40;10.27;;;5.05;;
27199;SDS011;14714;48.106;11.546;2024-01-06T12:29:08;8.75;;;4.95;;
27199;SDS011;14714;48.106;11.546;2024-01-06T12:31:35;7.50;;;4.85;;
27199;SDS011;14714;48.106;11.546;2024-01-06T12:36:37;9.73;;;5.10;;
27199;SDS011;14714;48.106;11.546;2024-01-06T12:39:05;7.05;;;4.95;;
27199;SDS011;14714;48.106;11.546;2024-01-06T12:41:37;7.72;;;5.28;;
27199;SDS011;14714;48.106;11.546;2024-01-06T12:44:04;9.57;;;4.88;;
27199;SDS011;14714;48.106;11.546;2024-01-06T12:46:31;9.48;;;4.90;;
27199;SDS011;14714;48.106;11.546;2024-01-06T12:48:58;9.07;;;4.60;;
27199;SDS011;14714;48.106;11.546;2024-01-06T12:51:25;8.77;;;4.60;;
27199;SDS011;14714;48.106;11.546;2024-01-06T12:53:52;10.75;;;4.15;;
27199;SDS011;14714;48.106;11.546;2024-01-06T12:56:18;8.02;;;3.60;;
27199;SDS011;14714;48.106;11.546;2024-01-06T12:58:45;5.78;;;3.65;;
27199;SDS011;14714;48.106;11.546;2024-01-06T13:01:12;6.82;;;3.88;;
27199;SDS011;14714;48.106;11.546;2024-01-06T13:03:39;7.53;;;3.83;;
27199;SDS011;14714;48.106;11.546;2024-01-06T13:06:06;7.55;;;4.70;;
27199;SDS011;14714;48.106;11.546;2024-01-06T13:08:33;11.75;;;4.47;;
27199;SDS011;14714;48.106;11.546;2024-01-06T13:11:00;9.30;;;4.63;;
27199;SDS011;14714;48.106;11.546;2024-01-06T13:13:27;7.63;;;4.78;;
27199;SDS011;14714;48.106;11.546;2024-01-06T13:15:54;13.45;;;3.78;;
27199;SDS011;14714;48.106;11.546;2024-01-06T13:18:21;5.38;;;3.10;;
27199;SDS011;14714;48.106;11.546;2024-01-06T13:20:48;6.28;;;3.40;;
27199;SDS011;14714;48.106;11.546;2024-01-06T13:23:15;7.38;;;3.67;;
27199;SDS011;14714;48.106;11.546;2024-01-06T13:25:44;5.82;;;4.03;;
27199;SDS011;14714;48.106;11.546;2024-01-06T13:28:10;6.60;;;3.60;;
27199;SDS011;14714;48.106;11.546;2024-01-06T13:30:38;6.22;;;3.50;;
27199;SDS011;14714;48.106;11.546;2024-01-06T13:33:08;5.95;;;3.30;;
27199;SDS011;14714;48.106;11.546;2024-01-06T13:35:37;5.20;;;3.20;;
27199;SDS011;14714;48.106;11.546;2024-01-06T13:38:05;7.60;;;3.30;;
27199;SDS011;14714;48.106;11.546;2024-01-06T13:40:32;5.47;;;3.70;;
27199;SDS011;14714;48.106;11.546;2024-01-06T13:42:59;5.25;;;3.63;;
27199;SDS011;14714;48.106;11.546;2024-01-06T13:45:26;6.72;;;3.85;;
27199;SDS011;14714;48.106;11.546;2024-01-06T13:47:53;6.60;;;3.72;;
27199;SDS011;14714;48.106;11.546;2024-01-06T13:50:20;6.47;;;3.78;;
27199;SDS011;14714;48.106;11.546;2024-01-06T13:52:47;5.97;;;3.65;;
27199;SDS011;14714;48.106;11.546;2024-01-06T13:55:14;6.30;;;3.90;;
27199;SDS011;14714;48.106;11.546;2024-01-06T13:57:42;6.90;;;3.63;;
27199;SDS011;14714;48.106;11.546;2024-01-06T14:00:09;6.80;;;3.70;;
27199;SDS011;14714;48.106;11.546;2024-01-06T14:02:37;7.82;;;4.35;;
27199;SDS011;14714;48.106;11.546;2024-01-06T14:05:04;11.73;;;4.47;;
27199;SDS011;14714;48.106;11.546;2024-01-06T14:10:11;8.20;;;4.30;;
27199;SDS011;14714;48.106;11.546;2024-01-06T14:12:42;6.97;;;3.90;;
27199;SDS011;14714;48.106;11.546;2024-01-06T14:15:09;6.18;;;4.28;;
27199;SDS011;14714;48.106;11.546;2024-01-06T14:17:36;7.47;;;4.70;;
27199;SDS011;14714;48.106;11.546;2024-01-06T14:20:04;8.05;;;4.70;;
27199;SDS011;14714;48.106;11.546;2024-01-06T14:22:31;6.65;;;4.40;;
27199;SDS011;14714;48.106;11.546;2024-01-06T14:24:58;6.53;;;4.22;;
27199;SDS011;14714;48.106;11.546;2024-01-06T14:27:31;7.97;;;5.15;;
27199;SDS011;14714;48.106;11.546;2024-01-06T14:29:58;9.55;;;5.63;;
27199;SDS011;14714;48.106;11.546;2024-01-06T14:32:25;9.85;;;5.47;;
27199;SDS011;14714;48.106;11.546;2024-01-06T14:34:52;8.02;;;5.10;;
27199;SDS011;14714;48.106;11.546;2024-01-06T14:37:19;10.10;;;5.30;;
27199;SDS011;14714;48.106;11.546;2024-01-06T14:39:47;8.50;;;5.82;;
27199;SDS011;14714;48.106;11.546;2024-01-06T14:42:14;9.10;;;5.72;;
27199;SDS011;14714;48.106;11.546;2024-01-06T14:44:42;10.23;;;5.45;;
27199;SDS011;14714;48.106;11.546;2024-01-06T14:47:09;7.57;;;5.25;;
27199;SDS011;14714;48.106;11.546;2024-01-06T14:49:36;8.13;;;5.70;;